Time;durP1;ratioP1;P1;durP2;ratioP2;P2;SDS_P1;SDS_P2;PMS_P1;PMS_P2;Temp;Humidity;BMP_temperature;BMP_pressure;BME280_temperature;BME280_humidity;BME280_pressure;Samples;Min_cycle;Max_cycle;Signal;HPM_P1;HPM_P2
2022/10/24 00:00:19;;;;;;;8.55;2.83;;;;;;;;;;5013630;28;20034;-61
2022/10/24 00:02:44;;;;;;;6.75;2.47;;;;;;;;;;4986848;28;20364;-60
2022/10/24 00:05:13;;;;;;;9.18;2.88;;;;;;;;;;4981646;28;20043;-60
2022/10/24 00:07:39;;;;;;;7.90;2.28;;;;;;;;;;4980687;28;20044;-60
2022/10/24 00:10:06;;;;;;;9.32;2.50;;;;;;;;;;5014900;28;20041;-59
2022/10/24 00:12:31;;;;;;;6.80;2.42;;;;;;;;;;4996341;28;20043;-61
2022/10/24 00:14:57;;;;;;;8.68;2.60;;;;;;;;;;4975447;28;20034;-60
2022/10/24 00:17:22;;;;;;;7.35;2.60;;;;;;;;;;5003114;28;20041;-60
2022/10/24 00:19:48;;;;;;;5.78;2.20;;;;;;;;;;4988947;28;20491;-59
2022/10/24 00:22:13;;;;;;;8.13;2.20;;;;;;;;;;4998247;28;20050;-59
2022/10/24 00:24:38;;;;;;;6.90;2.15;;;;;;;;;;4984214;28;20035;-59
2022/10/24 00:27:04;;;;;;;10.77;2.58;;;;;;;;;;4997691;28;20034;-60
2022/10/24 00:29:29;;;;;;;7.45;3.00;;;;;;;;;;5000754;28;20491;-61
2022/10/24 00:31:54;;;;;;;6.63;2.42;;;;;;;;;;4973661;28;20096;-61
2022/10/24 00:34:20;;;;;;;6.38;2.28;;;;;;;;;;4974694;28;20030;-60
2022/10/24 00:36:45;;;;;;;8.43;2.50;;;;;;;;;;4995248;28;21782;-60
2022/10/24 00:39:11;;;;;;;11.30;2.30;;;;;;;;;;4990236;28;20077;-60
2022/10/24 00:41:41;;;;;;;8.77;2.50;;;;;;;;;;4972592;28;20046;-60
2022/10/24 00:44:24;;;;;;;6.95;2.50;;;;;;;;;;4974122;28;20041;-60
2022/10/24 00:46:58;;;;;;;7.50;2.60;;;;;;;;;;4992454;28;20045;-62
2022/10/24 00:49:29;;;;;;;8.85;2.45;;;;;;;;;;4975177;28;20042;-60
2022/10/24 00:51:57;;;;;;;;;;;;;;;;;;4995505;28;20046;-60
2022/10/24 00:54:23;;;;;;;9.07;2.90;;;;;;;;;;4996801;28;19925;-60
2022/10/24 00:57:09;;;;;;;10.32;2.80;;;;;;;;;;4997224;28;20034;-60
2022/10/24 00:59:35;;;;;;;7.50;2.75;;;;;;;;;;4996715;28;20038;-60
2022/10/24 01:02:01;;;;;;;7.53;2.88;;;;;;;;;;5006049;28;20087;-60
2022/10/24 01:04:27;;;;;;;8.85;3.30;;;;;;;;;;4973507;28;20046;-61
2022/10/24 01:07:09;;;;;;;10.20;2.90;;;;;;;;;;4992182;28;20038;-61
2022/10/24 01:10:03;;;;;;;11.15;3.25;;;;;;;;;;4983841;28;20081;-62
2022/10/24 01:12:45;;;;;;;9.65;3.30;;;;;;;;;;4973885;28;20400;-60
2022/10/24 01:15:35;;;;;;;9.95;3.03;;;;;;;;;;4991204;28;20036;-61
2022/10/24 01:18:11;;;;;;;8.68;2.90;;;;;;;;;;4988499;28;20484;-60
2022/10/24 01:21:04;;;;;;;6.60;2.90;;;;;;;;;;4995969;28;20044;-62
2022/10/24 01:23:38;;;;;;;9.02;2.83;;;;;;;;;;4984684;28;20085;-61
2022/10/24 01:26:34;;;;;;;5.75;2.80;;;;;;;;;;4974078;28;20038;-60
2022/10/24 01:29:56;;;;;;;9.13;3.03;;;;;;;;;;4973438;28;20077;-60
2022/10/24 01:32:33;;;;;;;7.90;3.35;;;;;;;;;;4964215;28;20047;-60
2022/10/24 01:35:09;;;;;;;6.28;3.08;;;;;;;;;;4987509;28;20099;-61
2022/10/24 01:37:48;;;;;;;12.00;2.55;;;;;;;;;;4986608;28;20031;-61
2022/10/24 01:40:20;;;;;;;8.52;2.70;;;;;;;;;;4996417;28;20530;-61
2022/10/24 01:42:49;;;;;;;9.52;2.58;;;;;;;;;;4998912;28;20038;-61
2022/10/24 01:45:22;;;;;;;8.57;2.40;;;;;;;;;;4987816;28;20026;-61
2022/10/24 01:47:53;;;;;;;5.85;2.17;;;;;;;;;;4979459;28;20488;-60
2022/10/24 01:50:21;;;;;;;9.20;2.58;;;;;;;;;;4979531;28;20045;-60
2022/10/24 01:52:47;;;;;;;11.05;2.63;;;;;;;;;;4989600;28;20061;-62
2022/10/24 01:55:13;;;;;;;6.57;2.28;;;;;;;;;;4994881;28;20030;-61
2022/10/24 01:57:38;;;;;;;6.82;2.35;;;;;;;;;;4990276;28;20509;-61
2022/10/24 02:00:06;;;;;;;10.05;2.60;;;;;;;;;;4990257;28;20038;-61
2022/10/24 02:02:32;;;;;;;6.63;2.40;;;;;;;;;;4989479;28;20038;-62
2022/10/24 02:05:02;;;;;;;9.15;2.50;;;;;;;;;;4982581;28;20041;-61
2022/10/24 02:07:29;;;;;;;5.53;2.13;;;;;;;;;;4994434;28;20026;-60
2022/10/24 02:10:04;;;;;;;10.75;2.70;;;;;;;;;;4975229;28;20041;-61
2022/10/24 02:12:30;;;;;;;8.52;2.40;;;;;;;;;;4985811;28;20081;-60
2022/10/24 02:15:02;;;;;;;10.65;2.70;;;;;;;;;;5002303;28;20038;-61
2022/10/24 02:17:28;;;;;;;9.70;2.70;;;;;;;;;;4982013;28;20117;-60
2022/10/24 02:19:53;;;;;;;11.07;2.45;;;;;;;;;;4972120;28;20030;-60
2022/10/24 02:22:39;;;;;;;6.85;2.13;;;;;;;;;;4974052;28;20057;-60
2022/10/24 02:25:13;;;;;;;10.05;2.30;;;;;;;;;;5021901;28;20116;-60
2022/10/24 02:27:49;;;;;;;8.82;2.20;;;;;;;;;;4999159;28;20102;-60
2022/10/24 02:30:18;;;;;;;6.55;2.25;;;;;;;;;;4973748;28;20038;-60
2022/10/24 02:32:51;;;;;;;9.55;2.65;;;;;;;;;;4973059;28;20062;-61
2022/10/24 02:35:19;;;;;;;6.75;2.40;;;;;;;;;;4988237;28;20088;-61
2022/10/24 02:37:59;;;;;;;11.18;2.38;;;;;;;;;;4985452;28;20035;-62
2022/10/24 02:40:24;;;;;;;6.03;2.20;;;;;;;;;;4994234;28;20026;-61
2022/10/24 02:42:54;;;;;;;6.43;2.25;;;;;;;;;;4989653;28;20045;-60
2022/10/24 02:45:20;;;;;;;8.60;2.50;;;;;;;;;;4999786;28;20034;-60
2022/10/24 02:47:48;;;;;;;8.10;2.53;;;;;;;;;;4990519;28;20034;-61
2022/10/24 02:50:13;;;;;;;11.63;2.10;;;;;;;;;;5016607;28;20034;-61
2022/10/24 02:52:41;;;;;;;6.95;2.42;;;;;;;;;;5011980;28;20034;-61
2022/10/24 02:55:07;;;;;;;11.65;2.83;;;;;;;;;;5004935;28;20088;-61
2022/10/24 02:57:32;;;;;;;7.97;2.40;;;;;;;;;;4999332;28;20534;-61
2022/10/24 02:59:57;;;;;;;6.93;2.33;;;;;;;;;;5009184;28;20360;-61
2022/10/24 03:02:23;;;;;;;4.95;2.13;;;;;;;;;;4991229;28;20054;-61
2022/10/24 03:04:48;;;;;;;8.57;2.20;;;;;;;;;;5004662;28;20042;-60
2022/10/24 03:07:14;;;;;;;7.60;2.20;;;;;;;;;;4978019;28;20033;-61
2022/10/24 03:09:39;;;;;;;6.63;2.08;;;;;;;;;;4999864;28;20045;-61
2022/10/24 03:12:05;;;;;;;9.10;2.28;;;;;;;;;;4997915;28;20038;-60
2022/10/24 03:14:30;;;;;;;6.53;2.25;;;;;;;;;;4986661;28;20042;-61
2022/10/24 03:16:56;;;;;;;5.72;2.80;;;;;;;;;;4988873;28;20868;-60
2022/10/24 03:19:21;;;;;;;6.80;3.00;;;;;;;;;;4996228;28;20077;-60
2022/10/24 03:21:47;;;;;;;6.65;1.98;;;;;;;;;;4998797;28;20645;-60
2022/10/24 03:24:12;;;;;;;11.88;2.15;;;;;;;;;;4982736;28;20034;-60
2022/10/24 03:26:38;;;;;;;4.53;2.03;;;;;;;;;;4977918;28;20040;-60
2022/10/24 03:29:03;;;;;;;7.13;1.90;;;;;;;;;;5002049;28;20022;-60
2022/10/24 03:31:30;;;;;;;22.33;2.42;;;;;;;;;;5003131;28;20073;-60
2022/10/24 03:33:56;;;;;;;8.68;2.20;;;;;;;;;;4993719;28;20042;-60
2022/10/24 03:36:21;;;;;;;6.70;2.40;;;;;;;;;;4985347;28;20112;-61
2022/10/24 03:38:46;;;;;;;6.38;2.17;;;;;;;;;;4979276;28;20073;-61
2022/10/24 03:41:12;;;;;;;7.70;2.20;;;;;;;;;;4975107;28;20375;-61
2022/10/24 03:43:37;;;;;;;9.77;2.17;;;;;;;;;;4993597;28;20116;-61
2022/10/24 03:46:02;;;;;;;13.10;2.45;;;;;;;;;;4994770;28;20030;-62
2022/10/24 03:48:28;;;;;;;5.88;1.80;;;;;;;;;;4984113;28;20488;-62
2022/10/24 03:50:53;;;;;;;6.65;2.25;;;;;;;;;;4975107;28;20019;-61
2022/10/24 03:53:18;;;;;;;9.25;2.20;;;;;;;;;;4995126;28;20035;-60
2022/10/24 03:55:44;;;;;;;5.28;1.95;;;;;;;;;;4976958;28;20035;-61
2022/10/24 03:58:09;;;;;;;7.22;1.95;;;;;;;;;;4994013;28;20418;-61
2022/10/24 04:00:39;;;;;;;10.50;1.90;;;;;;;;;;4992161;28;20117;-60
2022/10/24 04:03:05;;;;;;;6.00;2.00;;;;;;;;;;4993445;28;20039;-61
2022/10/24 04:05:30;;;;;;;4.45;2.00;;;;;;;;;;4997618;28;20124;-61
2022/10/24 04:07:56;;;;;;;7.38;2.28;;;;;;;;;;4998254;28;20118;-60
2022/10/24 04:10:21;;;;;;;6.35;2.03;;;;;;;;;;4974742;28;20031;-60
2022/10/24 04:12:46;;;;;;;5.55;1.98;;;;;;;;;;4993406;28;20386;-60
2022/10/24 04:15:12;;;;;;;8.43;2.83;;;;;;;;;;4994337;28;20060;-62
2022/10/24 04:17:38;;;;;;;9.68;1.85;;;;;;;;;;4989976;28;20045;-61
2022/10/24 04:20:04;;;;;;;7.80;2.13;;;;;;;;;;4974431;28;20373;-60
2022/10/24 04:22:29;;;;;;;9.27;2.22;;;;;;;;;;5005392;28;20050;-60
2022/10/24 04:24:55;;;;;;;6.03;2.03;;;;;;;;;;4994164;28;20462;-61
2022/10/24 04:27:20;;;;;;;7.63;2.00;;;;;;;;;;4987644;28;20039;-60
2022/10/24 04:29:46;;;;;;;9.35;2.40;;;;;;;;;;4991045;28;20154;-60
2022/10/24 04:32:11;;;;;;;7.90;2.03;;;;;;;;;;5006518;28;20482;-60
2022/10/24 04:34:36;;;;;;;6.47;2.10;;;;;;;;;;4988601;28;20498;-61
2022/10/24 04:37:02;;;;;;;6.47;2.20;;;;;;;;;;5003349;28;20034;-61
2022/10/24 04:39:28;;;;;;;7.05;2.15;;;;;;;;;;4975214;28;20085;-60
2022/10/24 04:41:53;;;;;;;5.68;1.90;;;;;;;;;;4985133;28;20062;-59
2022/10/24 04:44:18;;;;;;;9.57;2.13;;;;;;;;;;4974969;28;20121;-60
2022/10/24 04:46:44;;;;;;;8.10;2.10;;;;;;;;;;4996391;28;20045;-61
2022/10/24 04:49:09;;;;;;;4.75;1.88;;;;;;;;;;4993739;28;20510;-60
2022/10/24 04:51:34;;;;;;;4.80;1.90;;;;;;;;;;4997752;28;20138;-64
2022/10/24 04:54:00;;;;;;;6.97;2.03;;;;;;;;;;4981436;28;20039;-62
2022/10/24 04:56:25;;;;;;;5.82;1.90;;;;;;;;;;5007976;28;20037;-62
2022/10/24 04:58:51;;;;;;;7.65;2.08;;;;;;;;;;5010319;28;20041;-62
2022/10/24 05:01:17;;;;;;;8.25;2.47;;;;;;;;;;5008283;28;20041;-65
2022/10/24 05:03:42;;;;;;;8.63;2.60;;;;;;;;;;4997080;28;20036;-62
2022/10/24 05:06:08;;;;;;;5.28;2.08;;;;;;;;;;4993969;28;20112;-62
2022/10/24 05:08:33;;;;;;;9.02;2.08;;;;;;;;;;4994577;28;20392;-64
2022/10/24 05:10:59;;;;;;;7.10;2.25;;;;;;;;;;4996674;28;20363;-61
2022/10/24 05:13:24;;;;;;;8.55;2.03;;;;;;;;;;5011266;28;20038;-63
2022/10/24 05:15:49;;;;;;;7.22;2.10;;;;;;;;;;4984621;28;20518;-62
2022/10/24 05:18:15;;;;;;;6.38;2.33;;;;;;;;;;4996025;28;20513;-62
2022/10/24 05:20:40;;;;;;;9.65;2.38;;;;;;;;;;5008775;28;20032;-61
2022/10/24 05:23:06;;;;;;;5.90;1.98;;;;;;;;;;4991441;28;20521;-64
2022/10/24 05:25:31;;;;;;;6.55;2.00;;;;;;;;;;4991347;28;20047;-68
2022/10/24 05:27:57;;;;;;;5.50;1.73;;;;;;;;;;4983652;28;20023;-68
2022/10/24 05:30:22;;;;;;;10.57;2.05;;;;;;;;;;4986699;28;20053;-66
2022/10/24 05:32:47;;;;;;;5.45;2.38;;;;;;;;;;5004559;28;20474;-65
2022/10/24 05:35:13;;;;;;;5.60;1.70;;;;;;;;;;5008996;28;20095;-69
2022/10/24 05:37:38;;;;;;;5.90;1.95;;;;;;;;;;5012201;28;20033;-68
2022/10/24 05:40:06;;;;;;;6.25;1.85;;;;;;;;;;5011633;28;20425;-69
2022/10/24 05:42:32;;;;;;;4.90;1.70;;;;;;;;;;4999030;28;20054;-69
2022/10/24 05:44:57;;;;;;;7.72;1.90;;;;;;;;;;4997403;28;20057;-68
2022/10/24 05:47:22;;;;;;;5.43;1.80;;;;;;;;;;5012786;28;20117;-69
2022/10/24 05:49:48;;;;;;;6.85;1.80;;;;;;;;;;4976885;28;20034;-69
2022/10/24 05:52:13;;;;;;;6.43;2.08;;;;;;;;;;4984745;28;20039;-68
2022/10/24 05:54:38;;;;;;;6.20;1.98;;;;;;;;;;4989774;28;20056;-69
2022/10/24 05:57:04;;;;;;;8.95;2.05;;;;;;;;;;4994344;28;20438;-69
2022/10/24 05:59:29;;;;;;;3.60;1.70;;;;;;;;;;5012642;28;20038;-68
2022/10/24 06:01:54;;;;;;;5.18;1.80;;;;;;;;;;5008898;28;20112;-68
2022/10/24 06:04:20;;;;;;;12.73;2.10;;;;;;;;;;4988584;28;20057;-68
2022/10/24 06:06:45;;;;;;;5.93;2.10;;;;;;;;;;4974487;28;20030;-67
2022/10/24 06:09:11;;;;;;;7.75;2.00;;;;;;;;;;5011851;28;20030;-68
2022/10/24 06:11:37;;;;;;;10.15;2.20;;;;;;;;;;5007139;28;20030;-69
2022/10/24 06:14:03;;;;;;;6.35;1.75;;;;;;;;;;5010117;28;20061;-69
2022/10/24 06:16:29;;;;;;;9.13;2.33;;;;;;;;;;4996364;28;20507;-69
2022/10/24 06:18:56;;;;;;;3.90;1.70;;;;;;;;;;5006989;28;20053;-70
2022/10/24 06:21:22;;;;;;;5.28;1.90;;;;;;;;;;5009979;28;20129;-64
2022/10/24 06:23:47;;;;;;;3.95;1.90;;;;;;;;;;5005812;28;20469;-66
2022/10/24 06:26:13;;;;;;;6.82;1.65;;;;;;;;;;5012152;28;20490;-67
2022/10/24 06:28:39;;;;;;;6.50;2.40;;;;;;;;;;5003922;28;20113;-67
2022/10/24 06:31:06;;;;;;;6.15;1.80;;;;;;;;;;4992795;28;20034;-68
2022/10/24 06:33:32;;;;;;;3.63;1.73;;;;;;;;;;4990660;28;20475;-67
2022/10/24 06:35:59;;;;;;;3.88;1.67;;;;;;;;;;4990695;28;20041;-68
2022/10/24 06:38:25;;;;;;;5.70;1.60;;;;;;;;;;4994490;28;20037;-68
2022/10/24 06:40:50;;;;;;;5.35;2.00;;;;;;;;;;4996708;28;20774;-68
2022/10/24 06:43:18;;;;;;;6.35;1.95;;;;;;;;;;5009049;28;20029;-67
2022/10/24 06:45:44;;;;;;;5.20;1.88;;;;;;;;;;5006347;28;20045;-68
2022/10/24 06:48:09;;;;;;;5.60;1.80;;;;;;;;;;5009662;28;20030;-68
2022/10/24 06:50:37;;;;;;;5.70;1.65;;;;;;;;;;4996691;28;20038;-64
2022/10/24 06:53:03;;;;;;;2.90;1.45;;;;;;;;;;5004944;28;20109;-69
2022/10/24 06:55:28;;;;;;;4.28;1.60;;;;;;;;;;4984127;28;20121;-64
2022/10/24 06:57:54;;;;;;;4.68;1.50;;;;;;;;;;4987639;28;20042;-69
2022/10/24 07:00:19;;;;;;;3.08;1.30;;;;;;;;;;4997284;28;20040;-67
2022/10/24 07:02:45;;;;;;;6.03;1.70;;;;;;;;;;4993374;28;20054;-67
2022/10/24 07:05:11;;;;;;;4.30;1.60;;;;;;;;;;4994346;28;20034;-68
2022/10/24 07:07:37;;;;;;;4.97;1.30;;;;;;;;;;4993181;28;20081;-67
2022/10/24 07:10:03;;;;;;;7.30;1.65;;;;;;;;;;4992120;28;20042;-67
2022/10/24 07:12:28;;;;;;;7.03;1.60;;;;;;;;;;4990350;28;20092;-67
2022/10/24 07:14:53;;;;;;;8.02;1.50;;;;;;;;;;4987019;28;20527;-68
2022/10/24 07:17:19;;;;;;;3.63;1.52;;;;;;;;;;4994393;28;20380;-68
2022/10/24 07:19:50;;;;;;;7.07;1.70;;;;;;;;;;5011964;28;20077;-68
2022/10/24 07:22:15;;;;;;;7.63;1.92;;;;;;;;;;5011254;28;20441;-69
2022/10/24 07:24:41;;;;;;;4.90;1.60;;;;;;;;;;4996049;28;20133;-66
2022/10/24 07:27:06;;;;;;;5.32;1.70;;;;;;;;;;4985717;28;20026;-68
2022/10/24 07:29:31;;;;;;;5.00;1.60;;;;;;;;;;4992743;28;20060;-68
2022/10/24 07:31:58;;;;;;;4.90;1.45;;;;;;;;;;4973268;28;20384;-70
2022/10/24 07:34:23;;;;;;;3.88;1.40;;;;;;;;;;5006096;28;20038;-70
2022/10/24 07:36:49;;;;;;;3.90;1.60;;;;;;;;;;5010604;28;20045;-70
2022/10/24 07:39:14;;;;;;;4.88;1.40;;;;;;;;;;5011519;28;20037;-67
2022/10/24 07:41:40;;;;;;;4.18;1.35;;;;;;;;;;4990076;28;20035;-68
2022/10/24 07:44:06;;;;;;;3.28;1.60;;;;;;;;;;4980758;28;20039;-69
2022/10/24 07:46:32;;;;;;;3.65;1.58;;;;;;;;;;4991079;28;20154;-66
2022/10/24 07:48:57;;;;;;;9.38;1.60;;;;;;;;;;4979136;28;20032;-68
2022/10/24 07:51:26;;;;;;;5.30;1.35;;;;;;;;;;5006616;28;20029;-68
2022/10/24 07:53:52;;;;;;;4.18;1.55;;;;;;;;;;4982979;28;20107;-67
2022/10/24 07:56:18;;;;;;;4.95;1.65;;;;;;;;;;4974712;28;20360;-68
2022/10/24 07:58:44;;;;;;;5.72;1.35;;;;;;;;;;4989569;28;20031;-67
2022/10/24 08:01:13;;;;;;;4.15;1.40;;;;;;;;;;5001595;28;20418;-68
2022/10/24 08:03:39;;;;;;;4.18;1.50;;;;;;;;;;5001665;28;20043;-67
2022/10/24 08:06:10;;;;;;;5.82;1.67;;;;;;;;;;4988157;28;20034;-69
2022/10/24 08:08:36;;;;;;;7.00;1.60;;;;;;;;;;5013630;28;20034;-66
2022/10/24 08:11:09;;;;;;;7.72;1.63;;;;;;;;;;5014605;28;20034;-67
2022/10/24 08:13:35;;;;;;;4.63;1.17;;;;;;;;;;5013631;28;20441;-69
2022/10/24 08:16:01;;;;;;;6.65;1.63;;;;;;;;;;4997022;28;20122;-65
2022/10/24 08:18:27;;;;;;;10.95;1.60;;;;;;;;;;5005306;28;20065;-69
2022/10/24 08:20:57;;;;;;;5.50;1.25;;;;;;;;;;4993058;28;20054;-65
2022/10/24 08:23:22;;;;;;;5.18;1.40;;;;;;;;;;4992910;28;20479;-69
2022/10/24 08:25:48;;;;;;;5.63;1.80;;;;;;;;;;5006346;28;20046;-68
2022/10/24 08:28:13;;;;;;;2.92;1.20;;;;;;;;;;5014360;28;20042;-68
2022/10/24 08:30:38;;;;;;;6.72;1.60;;;;;;;;;;5013208;28;20068;-66
2022/10/24 08:33:04;;;;;;;8.93;1.40;;;;;;;;;;4996074;28;20070;-69
2022/10/24 08:35:29;;;;;;;5.70;1.27;;;;;;;;;;4993909;28;20365;-68
2022/10/24 08:37:55;;;;;;;5.38;1.42;;;;;;;;;;5007346;28;20367;-67
2022/10/24 08:40:20;;;;;;;4.10;1.75;;;;;;;;;;5007473;28;20038;-67
2022/10/24 08:42:47;;;;;;;6.15;1.70;;;;;;;;;;5012503;28;20034;-69
2022/10/24 08:45:21;;;;;;;5.38;1.40;;;;;;;;;;5005868;28;20037;-67
2022/10/24 08:47:57;;;;;;;4.90;1.35;;;;;;;;;;5002765;28;20480;-67
2022/10/24 08:50:29;;;;;;;4.80;1.48;;;;;;;;;;5010473;28;20034;-67
2022/10/24 08:53:16;;;;;;;4.43;1.50;;;;;;;;;;5005790;28;20248;-67
2022/10/24 08:55:48;;;;;;;6.47;1.40;;;;;;;;;;5000223;28;20041;-66
2022/10/24 08:58:22;;;;;;;4.75;1.33;;;;;;;;;;4994007;28;20045;-67
2022/10/24 09:00:51;;;;;;;4.47;1.38;;;;;;;;;;5004678;28;20034;-68
2022/10/24 09:03:43;;;;;;;3.53;1.13;;;;;;;;;;5006358;28;20034;-66
2022/10/24 09:06:13;;;;;;;7.40;1.48;;;;;;;;;;4993458;28;20047;-68
2022/10/24 09:08:44;;;;;;;5.47;1.40;;;;;;;;;;5003899;28;20029;-68
2022/10/24 09:11:18;;;;;;;8.20;1.35;;;;;;;;;;5003614;28;20049;-68
2022/10/24 09:13:43;;;;;;;5.95;1.27;;;;;;;;;;4976305;28;20062;-68
2022/10/24 09:16:22;;;;;;;4.97;1.05;;;;;;;;;;4998793;28;20026;-67
2022/10/24 09:18:51;;;;;;;8.18;1.45;;;;;;;;;;5012602;28;20064;-67
2022/10/24 09:21:17;;;;;;;5.72;1.50;;;;;;;;;;5013260;28;20022;-66
2022/10/24 09:23:44;;;;;;;3.80;1.23;;;;;;;;;;4996216;28;20054;-67
2022/10/24 09:26:28;;;;;;;4.60;1.00;;;;;;;;;;5007200;28;20048;-68
2022/10/24 09:28:55;;;;;;;6.30;1.38;;;;;;;;;;5007545;28;20136;-68
2022/10/24 09:31:23;;;;;;;3.95;1.10;;;;;;;;;;4974008;28;20034;-68
2022/10/24 09:33:55;;;;;;;7.30;1.73;;;;;;;;;;4973233;28;20100;-68
2022/10/24 09:36:23;;;;;;;8.27;1.20;;;;;;;;;;4972956;28;20040;-67
2022/10/24 09:38:50;;;;;;;4.40;1.55;;;;;;;;;;4972719;28;20045;-67
2022/10/24 09:41:20;;;;;;;3.55;1.10;;;;;;;;;;5006331;28;20084;-66
2022/10/24 09:44:27;;;;;;;5.80;1.40;;;;;;;;;;5012099;28;20037;-68
2022/10/24 09:46:52;;;;;;;5.75;1.42;;;;;;;;;;4982736;28;20030;-67
2022/10/24 09:49:21;;;;;;;2.17;0.98;;;;;;;;;;4995348;28;20148;-64
2022/10/24 09:52:15;;;;;;;4.18;1.15;;;;;;;;;;4995436;28;20137;-67
2022/10/24 09:54:40;;;;;;;7.97;1.50;;;;;;;;;;4992409;28;20525;-67
2022/10/24 09:57:09;;;;;;;5.45;1.40;;;;;;;;;;4989462;28;20034;-67
2022/10/24 09:59:43;;;;;;;6.88;1.40;;;;;;;;;;4992206;28;20399;-64
2022/10/24 10:02:28;;;;;;;7.13;1.50;;;;;;;;;;4996349;28;20512;-68
2022/10/24 10:05:18;;;;;;;8.80;1.40;;;;;;;;;;4998849;28;20061;-66
2022/10/24 10:07:47;;;;;;;7.35;1.02;;;;;;;;;;5009862;28;20030;-67
2022/10/24 10:10:18;;;;;;;8.50;2.17;;;;;;;;;;4983967;28;20379;-69
2022/10/24 10:12:47;;;;;;;4.25;1.40;;;;;;;;;;4981562;28;20084;-67
2022/10/24 10:15:27;;;;;;;10.43;1.92;;;;;;;;;;4993081;28;20077;-68
2022/10/24 10:17:56;;;;;;;6.45;1.52;;;;;;;;;;4991973;28;20026;-69
2022/10/24 10:20:47;;;;;;;5.53;1.50;;;;;;;;;;4991789;28;20041;-63
2022/10/24 10:23:21;;;;;;;7.18;1.77;;;;;;;;;;5011666;28;20045;-63
2022/10/24 10:25:46;;;;;;;6.25;1.70;;;;;;;;;;5011343;28;20459;-67
2022/10/24 10:28:22;;;;;;;4.43;1.30;;;;;;;;;;4995960;28;20034;-66
2022/10/24 10:30:56;;;;;;;5.03;1.25;;;;;;;;;;5002026;28;20029;-69
2022/10/24 10:33:35;;;;;;;5.55;1.63;;;;;;;;;;5000920;28;20046;-66
2022/10/24 10:36:20;;;;;;;7.38;1.55;;;;;;;;;;4994799;28;20084;-66
2022/10/24 10:38:49;;;;;;;6.93;1.40;;;;;;;;;;4986393;28;20034;-64
2022/10/24 10:41:40;;;;;;;3.22;1.00;;;;;;;;;;5007232;28;20029;-64
2022/10/24 10:44:14;;;;;;;;;;;;;;;;;;4990257;28;20436;-61
2022/10/24 10:47:10;;;;;;;5.20;1.33;;;;;;;;;;4986638;28;19914;-61
2022/10/24 10:49:40;;;;;;;6.40;1.52;;;;;;;;;;4972088;28;20037;-66
2022/10/24 10:52:24;;;;;;;2.75;1.10;;;;;;;;;;4994276;28;20041;-69
2022/10/24 10:55:04;;;;;;;6.50;1.45;;;;;;;;;;4984518;28;20042;-69
2022/10/24 10:57:48;;;;;;;6.88;1.30;;;;;;;;;;4991841;28;20038;-68
2022/10/24 11:00:20;;;;;;;5.95;1.50;;;;;;;;;;4975962;28;20489;-65
2022/10/24 11:03:04;;;;;;;9.63;1.55;;;;;;;;;;5004114;28;20056;-66
2022/10/24 11:05:48;;;;;;;3.40;1.10;;;;;;;;;;5003802;28;20038;-66
2022/10/24 11:08:42;;;;;;;6.18;1.20;;;;;;;;;;5004624;28;20042;-65
2022/10/24 11:11:13;;;;;;;5.45;1.50;;;;;;;;;;4994925;28;20117;-65
2022/10/24 11:13:58;;;;;;;9.25;1.90;;;;;;;;;;4990577;28;20034;-66
2022/10/24 11:16:28;;;;;;;9.38;1.95;;;;;;;;;;4994838;28;20053;-66
2022/10/24 11:19:01;;;;;;;5.28;1.65;;;;;;;;;;5007183;28;20061;-65
2022/10/24 11:21:31;;;;;;;8.43;1.80;;;;;;;;;;5003874;28;20052;-66
2022/10/24 11:24:02;;;;;;;6.78;1.58;;;;;;;;;;5010498;28;20120;-66
2022/10/24 11:26:40;;;;;;;11.07;1.73;;;;;;;;;;5006500;28;20092;-66
2022/10/24 11:29:35;;;;;;;7.25;1.73;;;;;;;;;;4994919;28;20417;-65
2022/10/24 11:32:16;;;;;;;3.50;1.50;;;;;;;;;;4994209;28;20037;-64
2022/10/24 11:34:49;;;;;;;6.05;1.80;;;;;;;;;;4986620;28;20037;-63
2022/10/24 11:37:23;;;;;;;9.45;1.40;;;;;;;;;;5006108;28;20493;-63
2022/10/24 11:40:06;;;;;;;9.25;1.90;;;;;;;;;;5003294;28;20382;-65
2022/10/24 11:42:38;;;;;;;6.68;1.50;;;;;;;;;;5013356;28;20038;-64
2022/10/24 11:45:05;;;;;;;5.10;1.25;;;;;;;;;;4994143;28;20035;-64
2022/10/24 11:47:48;;;;;;;4.60;1.25;;;;;;;;;;5001396;28;20037;-66
2022/10/24 11:50:24;;;;;;;5.10;1.10;;;;;;;;;;5005345;28;20104;-66
2022/10/24 11:53:11;;;;;;;2.72;1.02;;;;;;;;;;5012852;28;20034;-66
2022/10/24 11:55:40;;;;;;;4.90;1.33;;;;;;;;;;5004748;28;20033;-67
2022/10/24 11:58:13;;;;;;;6.38;1.50;;;;;;;;;;4987272;28;20089;-64
2022/10/24 12:00:50;;;;;;;4.53;1.42;;;;;;;;;;4981898;28;20073;-65
2022/10/24 12:03:52;;;;;;;6.47;1.42;;;;;;;;;;4984169;28;20035;-65
2022/10/24 12:06:59;;;;;;;3.20;1.20;;;;;;;;;;4980557;28;20039;-65
2022/10/24 12:09:45;;;;;;;5.50;1.27;;;;;;;;;;5006581;28;20118;-65
2022/10/24 12:13:00;;;;;;;7.28;1.55;;;;;;;;;;4998619;28;20030;-66
2022/10/24 12:15:47;;;;;;;5.95;1.25;;;;;;;;;;5001593;28;20042;-66
2022/10/24 12:18:31;;;;;;;5.68;1.58;;;;;;;;;;5006282;28;20038;-65
2022/10/24 12:21:02;;;;;;;8.65;1.50;;;;;;;;;;5003945;28;20053;-63
2022/10/24 12:23:30;;;;;;;10.35;1.85;;;;;;;;;;4975379;28;20066;-65
2022/10/24 12:26:11;;;;;;;6.35;1.55;;;;;;;;;;4974447;28;20058;-66
2022/10/24 12:28:37;;;;;;;7.10;1.40;;;;;;;;;;4974481;28;20042;-66
2022/10/24 12:31:14;;;;;;;9.85;1.90;;;;;;;;;;4993608;28;20040;-66
2022/10/24 12:33:42;;;;;;;8.43;1.60;;;;;;;;;;5010716;28;20414;-66
2022/10/24 12:36:08;;;;;;;8.50;1.60;;;;;;;;;;5005969;28;20478;-66
2022/10/24 12:38:33;;;;;;;8.48;1.92;;;;;;;;;;4989119;28;20031;-66
2022/10/24 12:41:05;;;;;;;7.20;1.67;;;;;;;;;;4975107;28;20049;-66
2022/10/24 12:43:35;;;;;;;4.25;1.20;;;;;;;;;;4994448;28;20053;-67
2022/10/24 12:46:22;;;;;;;7.80;1.88;;;;;;;;;;4977152;28;20045;-66
2022/10/24 12:48:56;;;;;;;7.15;1.67;;;;;;;;;;4974174;28;20030;-66
2022/10/24 12:51:25;;;;;;;5.32;1.17;;;;;;;;;;4975039;28;20039;-67
2022/10/24 12:54:02;;;;;;;8.05;1.88;;;;;;;;;;4974318;28;20062;-67
2022/10/24 12:56:30;;;;;;;5.82;1.40;;;;;;;;;;4974496;28;20038;-68
2022/10/24 12:59:27;;;;;;;5.45;1.40;;;;;;;;;;5008749;28;20049;-67
2022/10/24 13:02:11;;;;;;;7.60;1.52;;;;;;;;;;5002873;28;20027;-61
2022/10/24 13:04:55;;;;;;;7.07;1.42;;;;;;;;;;5004863;28;20065;-61
2022/10/24 13:07:45;;;;;;;7.20;2.00;;;;;;;;;;5006296;28;20026;-67
2022/10/24 13:10:26;;;;;;;5.35;1.38;;;;;;;;;;4990637;28;20381;-68
2022/10/24 13:13:03;;;;;;;6.88;1.58;;;;;;;;;;4973801;28;20060;-62
2022/10/24 13:16:00;;;;;;;5.10;1.50;;;;;;;;;;4993228;28;20045;-66
2022/10/24 13:18:46;;;;;;;7.00;1.33;;;;;;;;;;4993689;28;20043;-64
2022/10/24 13:21:20;;;;;;;5.78;1.45;;;;;;;;;;4993819;28;20030;-66
2022/10/24 13:23:47;;;;;;;7.78;1.77;;;;;;;;;;4994309;28;20050;-65
2022/10/24 13:26:44;;;;;;;7.00;1.95;;;;;;;;;;4994995;28;20035;-65
2022/10/24 13:29:22;;;;;;;8.52;1.95;;;;;;;;;;4997261;28;20036;-66
2022/10/24 13:31:49;;;;;;;9.55;1.98;;;;;;;;;;4993357;28;20062;-67
2022/10/24 13:34:35;;;;;;;6.07;1.45;;;;;;;;;;4995208;28;20117;-66
2022/10/24 13:37:36;;;;;;;5.00;1.50;;;;;;;;;;4992654;28;20038;-66
2022/10/24 13:40:20;;;;;;;9.38;1.60;;;;;;;;;;4993217;28;20039;-66
2022/10/24 13:42:52;;;;;;;7.90;1.80;;;;;;;;;;4991182;28;20023;-67
2022/10/24 13:45:28;;;;;;;7.95;1.70;;;;;;;;;;4994119;28;20041;-64
2022/10/24 13:47:59;;;;;;;8.30;1.67;;;;;;;;;;4992269;28;20034;-64
2022/10/24 13:50:31;;;;;;;7.15;1.50;;;;;;;;;;4992649;28;20034;-62
2022/10/24 13:53:00;;;;;;;6.78;1.38;;;;;;;;;;4991100;28;20045;-66
2022/10/24 13:55:35;;;;;;;6.22;1.42;;;;;;;;;;4996419;28;20107;-65
2022/10/24 13:58:04;;;;;;;3.05;1.20;;;;;;;;;;5011901;28;20061;-65
2022/10/24 14:00:34;;;;;;;6.65;1.40;;;;;;;;;;4999578;28;20040;-65
2022/10/24 14:03:03;;;;;;;7.78;1.65;;;;;;;;;;4989222;28;20093;-67
2022/10/24 14:05:38;;;;;;;11.60;2.10;;;;;;;;;;4989851;28;20049;-65
2022/10/24 14:08:06;;;;;;;6.38;1.58;;;;;;;;;;5011065;28;20034;-68
2022/10/24 14:10:32;;;;;;;5.53;1.70;;;;;;;;;;5005585;28;20577;-64
2022/10/24 14:12:58;;;;;;;8.23;1.70;;;;;;;;;;4986433;28;20117;-66
2022/10/24 14:15:28;;;;;;;7.95;2.03;;;;;;;;;;5002428;28;20463;-66
2022/10/24 14:17:59;;;;;;;8.68;1.58;;;;;;;;;;4999384;28;20038;-65
2022/10/24 14:20:26;;;;;;;;;;;;;;;;;;4987769;28;20072;-65
2022/10/24 14:22:52;;;;;;;6.72;1.60;;;;;;;;;;4972150;28;19965;-65
2022/10/24 14:25:23;;;;;;;7.57;1.70;;;;;;;;;;4979901;28;20050;-66
2022/10/24 14:27:49;;;;;;;6.45;1.58;;;;;;;;;;4995900;28;20415;-67
2022/10/24 14:30:20;;;;;;;8.07;1.73;;;;;;;;;;5010161;28;20534;-67
2022/10/24 14:32:46;;;;;;;8.20;1.95;;;;;;;;;;5007678;28;20049;-65
2022/10/24 14:35:13;;;;;;;11.82;2.33;;;;;;;;;;5001171;28;20026;-64
2022/10/24 14:37:39;;;;;;;10.55;2.70;;;;;;;;;;5007488;28;20040;-65
2022/10/24 14:40:16;;;;;;;12.98;2.75;;;;;;;;;;5010482;28;20033;-66
2022/10/24 14:42:44;;;;;;;9.18;2.00;;;;;;;;;;4997752;28;20092;-66
2022/10/24 14:45:27;;;;;;;13.20;2.60;;;;;;;;;;5004317;28;20433;-66
2022/10/24 14:47:54;;;;;;;10.68;2.10;;;;;;;;;;5005575;28;20229;-64
2022/10/24 14:50:52;;;;;;;11.68;2.42;;;;;;;;;;4998791;28;20464;-65
2022/10/24 14:53:26;;;;;;;11.48;2.38;;;;;;;;;;4975932;28;20058;-66
2022/10/24 14:55:57;;;;;;;9.57;2.20;;;;;;;;;;4972374;28;20034;-65
2022/10/24 14:58:24;;;;;;;;;;;;;;;;;;4987821;28;20049;-65
2022/10/24 15:00:51;;;;;;;9.57;2.28;;;;;;;;;;5004104;28;19914;-66
2022/10/24 15:03:16;;;;;;;9.75;1.90;;;;;;;;;;5006206;28;20030;-64
2022/10/24 15:05:56;;;;;;;8.05;1.65;;;;;;;;;;5007166;28;22118;-66